Terminal Aerodrome Forecast
Issued by NWS

Home | Current Version | Previous Version | Text Only | Print | Product List | Glossary On
Versions: 1 2 3 4 5 6 7 8 9 10 11 12 13 14 15 16
000
FTUS42 KTAE 011300 AAA
TAFDHN
TAF AMD
KDHN 011319Z 0113/0212 07008KT 4SM BR OVC004
      TEMPO 0113/0116 1/2SM FG OVC002
     FM020800 10003KT 2SM BR OVC004=

USA.gov is the U.S. government's official web portal to all federal, state and local government web resources and services.